createdAt,value
2022-11-04T00:03:58.204Z,13.34
2022-11-04T00:09:01.282Z,12.84
2022-11-04T00:14:06.019Z,11.44
2022-11-04T00:19:08.596Z,10.96
2022-11-04T00:24:44.689Z,11.84
2022-11-04T00:29:49.071Z,10.48
2022-11-04T00:34:51.657Z,11.63
2022-11-04T00:39:54.253Z,11.73
2022-11-04T00:44:58.243Z,12.00
2022-11-04T00:50:00.843Z,12.33
2022-11-04T00:55:03.625Z,12.05
2022-11-04T01:00:09.189Z,12.51
2022-11-04T01:05:11.777Z,12.06
2022-11-04T01:10:14.416Z,12.36
2022-11-04T01:15:18.699Z,12.34
2022-11-04T01:20:21.402Z,11.86
2022-11-04T01:25:24.208Z,12.18
2022-11-04T01:30:28.119Z,12.41
2022-11-04T01:35:30.763Z,11.86
2022-11-04T01:40:37.498Z,11.83
2022-11-04T01:45:42.935Z,11.83
2022-11-04T01:50:45.787Z,11.87
2022-11-04T01:55:52.526Z,12.09
2022-11-04T02:00:56.548Z,12.35
2022-11-04T02:06:00.677Z,12.35
2022-11-04T02:11:05.063Z,12.35
2022-11-04T02:16:17.790Z,12.02
2022-11-04T02:22:01.996Z,12.54
2022-11-04T02:27:37.350Z,12.45
2022-11-04T02:33:06.738Z,12.77
2022-11-04T02:38:18.332Z,12.58
2022-11-04T02:43:26.542Z,12.44
2022-11-04T02:48:38.877Z,12.63
2022-11-04T02:53:46.604Z,12.61
2022-11-04T02:58:55.778Z,12.49
2022-11-04T03:04:05.285Z,12.24
2022-11-04T03:09:11.676Z,12.04
2022-11-04T03:14:16.657Z,11.75
2022-11-04T03:19:27.919Z,12.55
2022-11-04T03:24:32.398Z,12.78
2022-11-04T03:29:37.363Z,12.88
2022-11-04T03:34:41.129Z,12.97
2022-11-04T03:39:43.835Z,12.75
2022-11-04T03:44:47.952Z,12.43
2022-11-04T03:49:55.709Z,12.75
2022-11-04T03:54:58.536Z,12.70
2022-11-04T04:00:10.351Z,12.47
2022-11-04T04:05:21.265Z,12.23
2022-11-04T04:10:41.874Z,12.62
2022-11-04T04:15:50.663Z,12.39
2022-11-04T04:20:57.533Z,12.70
2022-11-04T04:26:23.587Z,12.63
2022-11-04T04:31:45.548Z,11.73
2022-11-04T04:36:54.302Z,11.84
2022-11-04T04:42:14.961Z,11.65
2022-11-04T04:47:21.887Z,11.91
2022-11-04T04:52:28.703Z,12.43
2022-11-04T04:57:31.493Z,12.57
2022-11-04T05:02:34.229Z,11.95
2022-11-04T05:07:38.376Z,11.77
2022-11-04T05:12:59.181Z,12.09
2022-11-04T05:18:03.261Z,11.97
2022-11-04T05:23:07.775Z,11.97
2022-11-04T05:28:10.906Z,11.87
2022-11-04T05:33:13.676Z,12.04
2022-11-04T05:38:17.646Z,12.25
2022-11-04T05:43:20.510Z,11.98
2022-11-04T05:48:24.188Z,12.26
2022-11-04T05:58:35.994Z,12.03
2022-11-04T06:03:38.691Z,12.23
2022-11-04T06:08:45.283Z,12.43
2022-11-04T06:13:48.161Z,12.63
2022-11-04T06:18:50.807Z,12.02
2022-11-04T06:23:56.836Z,11.62
2022-11-04T06:28:59.488Z,11.84
2022-11-04T06:34:02.156Z,11.97
2022-11-04T06:39:06.546Z,12.02
2022-11-04T06:44:09.245Z,11.87
2022-11-04T06:49:14.576Z,11.91
2022-11-04T06:54:19.396Z,11.97
2022-11-04T06:59:22.062Z,11.90
2022-11-04T07:04:24.743Z,12.04
2022-11-04T07:09:28.670Z,12.20
2022-11-04T07:14:31.437Z,12.67
2022-11-04T07:19:34.123Z,12.33
2022-11-04T07:24:40.663Z,12.60
2022-11-04T07:29:43.284Z,12.67
2022-11-04T07:34:45.848Z,12.08
2022-11-04T07:39:49.735Z,12.28
2022-11-04T07:44:52.311Z,12.56
2022-11-04T07:50:11.324Z,12.06
2022-11-04T07:55:25.014Z,12.08
2022-11-04T08:00:29.627Z,11.76
2022-11-04T08:05:32.253Z,11.99
2022-11-04T08:10:39.532Z,12.05
2022-11-04T08:15:44.287Z,11.89
2022-11-04T08:20:50.024Z,12.28
2022-11-04T08:25:54.136Z,12.43
2022-11-04T08:31:01.248Z,12.71
2022-11-04T08:36:09.524Z,12.09
2022-11-04T08:41:15.549Z,12.47
2022-11-04T08:46:18.542Z,12.48
2022-11-04T08:51:23.822Z,12.32
2022-11-04T08:56:30.376Z,12.63
2022-11-04T09:01:36.807Z,12.66
2022-11-04T09:06:41.876Z,12.97
2022-11-04T09:12:06.296Z,13.14
2022-11-04T09:17:19.574Z,12.53
2022-11-04T09:22:22.338Z,12.49
2022-11-04T09:27:28.391Z,12.15
2022-11-04T09:32:33.280Z,12.06
2022-11-04T09:37:40.700Z,11.50
2022-11-04T09:43:55.420Z,11.57
2022-11-04T09:49:03.622Z,11.36
2022-11-04T09:54:29.536Z,11.23
2022-11-04T10:05:37.919Z,11.64
2022-11-04T10:11:03.680Z,11.51
2022-11-04T10:16:38.793Z,11.83
2022-11-04T10:22:01.618Z,11.91
2022-11-04T10:27:14.174Z,11.76
2022-11-04T10:37:56.124Z,12.52
2022-11-04T10:43:00.589Z,12.19
2022-11-04T10:48:07.020Z,12.38
2022-11-04T10:53:48.767Z,12.17
2022-11-04T10:58:58.621Z,12.02
2022-11-04T11:04:29.446Z,12.11
2022-11-04T11:09:35.019Z,12.08
2022-11-04T11:14:40.063Z,12.21
2022-11-04T11:19:51.678Z,11.95
2022-11-04T11:24:54.395Z,12.42
2022-11-04T11:29:57.247Z,12.32
2022-11-04T11:35:04.316Z,12.37
2022-11-04T11:40:25.834Z,12.34
2022-11-04T11:45:29.157Z,12.44
2022-11-04T11:50:35.008Z,12.39
2022-11-04T11:55:39.205Z,12.62
2022-11-04T12:00:51.970Z,13.07
2022-11-04T12:11:29.277Z,12.99
2022-11-04T12:16:39.174Z,13.00
2022-11-04T12:21:48.169Z,12.83
2022-11-04T12:26:59.940Z,12.74
2022-11-04T12:32:10.289Z,12.80
2022-11-04T12:37:26.727Z,12.77
2022-11-04T12:42:44.807Z,13.39
2022-11-04T12:47:48.620Z,13.78
2022-11-04T12:53:14.312Z,14.38
2022-11-04T12:58:29.823Z,14.17
2022-11-04T13:03:37.543Z,14.73
2022-11-04T13:08:47.756Z,14.31
2022-11-04T13:14:02.200Z,13.65
2022-11-04T13:19:07.162Z,13.97
2022-11-04T13:24:22.199Z,13.68
2022-11-04T13:29:26.560Z,13.58
2022-11-04T13:34:49.403Z,13.25
2022-11-04T13:39:58.815Z,13.62
2022-11-04T13:45:12.128Z,13.99
2022-11-04T13:50:29.763Z,14.35
2022-11-04T13:55:35.529Z,13.83
2022-11-04T14:00:39.860Z,14.04
2022-11-04T14:06:12.557Z,13.93
2022-11-04T14:11:16.513Z,13.86
2022-11-04T14:16:40.150Z,13.60
2022-11-04T14:22:07.738Z,13.73
2022-11-04T14:27:25.587Z,13.83
2022-11-04T14:32:32.903Z,13.96
2022-11-04T14:37:37.666Z,13.82
2022-11-04T14:42:49.935Z,13.83
2022-11-04T14:48:15.551Z,13.84
2022-11-04T14:53:24.635Z,14.04
2022-11-04T14:58:33.875Z,13.68
2022-11-04T15:04:10.966Z,13.77
2022-11-04T15:09:01.663Z,13.36
2022-11-04T15:14:15.773Z,13.34
2022-11-04T15:19:28.214Z,13.16
2022-11-04T15:24:39.046Z,13.00
2022-11-04T15:30:24.720Z,12.60
2022-11-04T15:35:31.713Z,12.89
2022-11-04T15:41:00.592Z,12.81
2022-11-04T15:46:10.266Z,12.74
2022-11-04T15:51:17.220Z,12.40
2022-11-04T15:56:26.026Z,12.62
2022-11-04T16:01:32.804Z,12.06
2022-11-04T16:06:38.279Z,12.53
2022-11-04T16:11:41.336Z,12.05
2022-11-04T16:16:50.755Z,10.56
2022-11-04T16:22:01.909Z,10.51
2022-11-04T16:27:09.124Z,11.03
2022-11-04T16:32:19.727Z,11.94
2022-11-04T16:37:22.431Z,11.99
2022-11-04T16:42:25.316Z,12.14
2022-11-04T16:47:30.790Z,12.20
2022-11-04T16:52:33.462Z,11.81
2022-11-04T16:57:36.379Z,10.68
2022-11-04T17:02:41.640Z,11.47
2022-11-04T17:07:53.647Z,11.73
2022-11-04T17:12:58.157Z,10.99
2022-11-04T17:18:02.319Z,11.20
2022-11-04T17:23:05.074Z,11.71
2022-11-04T17:28:07.811Z,11.79
2022-11-04T17:33:14.650Z,11.69
2022-11-04T17:38:18.719Z,11.44
2022-11-04T17:43:38.881Z,11.75
2022-11-04T17:48:45.425Z,11.68
2022-11-04T17:53:49.400Z,11.74
2022-11-04T17:58:53.320Z,11.52
2022-11-04T18:03:58.074Z,11.75
2022-11-04T18:09:00.918Z,11.53
2022-11-04T18:14:03.625Z,11.85
2022-11-04T18:19:07.744Z,12.07
2022-11-04T18:24:10.753Z,12.07
2022-11-04T18:29:13.698Z,12.03
2022-11-04T18:34:19.930Z,12.02
2022-11-04T18:39:22.899Z,11.13
2022-11-04T18:44:25.496Z,11.23
2022-11-04T18:49:29.932Z,11.04
2022-11-04T18:54:32.771Z,10.43
2022-11-04T18:59:35.438Z,10.06
2022-11-04T19:04:39.474Z,10.14
2022-11-04T19:09:47.185Z,10.90
2022-11-04T19:14:50.702Z,10.25
2022-11-04T19:19:54.869Z,9.87
2022-11-04T19:24:57.523Z,11.01
2022-11-04T19:30:00.175Z,11.35
2022-11-04T19:35:04.299Z,10.26
2022-11-04T19:40:08.099Z,10.80
2022-11-04T19:45:10.861Z,10.29
2022-11-04T19:50:15.053Z,10.43
2022-11-04T19:55:17.801Z,10.83
2022-11-04T20:00:20.872Z,11.08
2022-11-04T20:05:25.183Z,10.68
2022-11-04T20:10:27.958Z,11.27
2022-11-04T20:15:30.957Z,11.42
2022-11-04T20:20:35.195Z,10.62
2022-11-04T20:25:38.202Z,10.79
2022-11-04T20:30:44.010Z,11.30
2022-11-04T20:35:48.406Z,10.54
2022-11-04T20:40:51.267Z,10.66
2022-11-04T20:45:54.063Z,10.49
2022-11-04T20:50:58.189Z,9.86
2022-11-04T20:56:00.885Z,10.13
2022-11-04T21:01:05.434Z,10.55
2022-11-04T21:06:11.638Z,10.23
2022-11-04T21:11:31.746Z,10.30
2022-11-04T21:16:35.887Z,11.10
2022-11-04T21:21:41.907Z,11.07
2022-11-04T21:26:45.601Z,10.80
2022-11-04T21:31:49.732Z,11.38
2022-11-04T21:36:54.011Z,11.49
2022-11-04T21:42:02.431Z,11.32
2022-11-04T21:47:05.268Z,10.92
2022-11-04T21:52:13.663Z,11.09
2022-11-04T21:57:17.728Z,10.69
2022-11-04T22:02:20.664Z,8.97
2022-11-04T22:07:54.438Z,9.04
2022-11-04T22:12:57.440Z,8.75
2022-11-04T22:18:00.441Z,9.17
2022-11-04T22:23:05.093Z,8.82
2022-11-04T22:28:07.954Z,9.89
2022-11-04T22:33:11.014Z,10.20
2022-11-04T22:38:15.798Z,10.42
2022-11-04T22:43:18.586Z,9.73
2022-11-04T22:48:21.746Z,8.79
2022-11-04T22:53:26.243Z,9.63
2022-11-04T22:58:28.797Z,8.92
2022-11-04T23:03:31.901Z,9.33
2022-11-04T23:08:37.472Z,9.19
2022-11-04T23:14:06.625Z,9.02
2022-11-04T23:19:09.309Z,9.49
2022-11-04T23:24:30.897Z,10.09
2022-11-04T23:29:51.151Z,10.41
2022-11-04T23:35:11.397Z,10.26
2022-11-04T23:40:15.462Z,10.37
2022-11-04T23:45:36.170Z,10.56
2022-11-04T23:50:56.215Z,10.59
2022-11-04T23:56:18.611Z,10.21
